sensor_id;sensor_type;location;lat;lon;timestamp;temperature;humidity
71047;SHT31;58703;48.978;8.982;2024-03-02T00:00:30;4.03;99.99
71047;SHT31;58703;48.978;8.982;2024-03-02T00:02:57;4.10;99.99
71047;SHT31;58703;48.978;8.982;2024-03-02T00:05:23;4.05;99.99
71047;SHT31;58703;48.978;8.982;2024-03-02T00:07:57;3.97;99.99
71047;SHT31;58703;48.978;8.982;2024-03-02T00:10:44;3.85;99.99
71047;SHT31;58703;48.978;8.982;2024-03-02T00:13:12;3.83;99.99
71047;SHT31;58703;48.978;8.982;2024-03-02T00:15:47;3.63;99.99
71047;SHT31;58703;48.978;8.982;2024-03-02T00:18:34;3.51;99.99
71047;SHT31;58703;48.978;8.982;2024-03-02T00:21:01;3.51;99.99
71047;SHT31;58703;48.978;8.982;2024-03-02T00:23:32;3.56;99.99
71047;SHT31;58703;48.978;8.982;2024-03-02T00:25:59;3.68;99.99
71047;SHT31;58703;48.978;8.982;2024-03-02T00:28:31;3.73;99.99
71047;SHT31;58703;48.978;8.982;2024-03-02T00:31:13;3.75;99.99
71047;SHT31;58703;48.978;8.982;2024-03-02T00:33:49;3.69;99.99
71047;SHT31;58703;48.978;8.982;2024-03-02T00:36:22;3.56;99.99
71047;SHT31;58703;48.978;8.982;2024-03-02T00:38:53;3.68;99.99
71047;SHT31;58703;48.978;8.982;2024-03-02T00:41:24;3.76;99.99
71047;SHT31;58703;48.978;8.982;2024-03-02T00:44:23;3.58;99.99
71047;SHT31;58703;48.978;8.982;2024-03-02T00:46:49;3.54;99.99
71047;SHT31;58703;48.978;8.982;2024-03-02T00:49:22;3.59;99.99
71047;SHT31;58703;48.978;8.982;2024-03-02T00:51:50;3.56;99.99
71047;SHT31;58703;48.978;8.982;2024-03-02T00:54:23;3.68;99.99
71047;SHT31;58703;48.978;8.982;2024-03-02T00:56:56;3.65;99.99
71047;SHT31;58703;48.978;8.982;2024-03-02T00:59:23;3.81;99.99
71047;SHT31;58703;48.978;8.982;2024-03-02T01:01:50;3.86;99.99
71047;SHT31;58703;48.978;8.982;2024-03-02T01:04:18;3.78;99.99
71047;SHT31;58703;48.978;8.982;2024-03-02T01:06:43;3.73;99.99
71047;SHT31;58703;48.978;8.982;2024-03-02T01:09:10;3.55;99.99
71047;SHT31;58703;48.978;8.982;2024-03-02T01:11:39;3.45;99.99
71047;SHT31;58703;48.978;8.982;2024-03-02T01:14:05;3.48;99.99
71047;SHT31;58703;48.978;8.982;2024-03-02T01:16:31;3.45;99.99
71047;SHT31;58703;48.978;8.982;2024-03-02T01:18:58;3.27;99.99
71047;SHT31;58703;48.978;8.982;2024-03-02T01:21:25;3.18;99.99
71047;SHT31;58703;48.978;8.982;2024-03-02T01:23:52;3.15;99.99
71047;SHT31;58703;48.978;8.982;2024-03-02T01:26:19;3.00;99.99
71047;SHT31;58703;48.978;8.982;2024-03-02T01:28:47;2.86;99.99
71047;SHT31;58703;48.978;8.982;2024-03-02T01:31:13;2.72;99.99
71047;SHT31;58703;48.978;8.982;2024-03-02T01:33:40;2.39;99.99
71047;SHT31;58703;48.978;8.982;2024-03-02T01:36:06;2.29;99.99
71047;SHT31;58703;48.978;8.982;2024-03-02T01:38:36;2.39;99.99
71047;SHT31;58703;48.978;8.982;2024-03-02T01:41:03;2.26;99.99
71047;SHT31;58703;48.978;8.982;2024-03-02T01:43:30;2.29;99.99
71047;SHT31;58703;48.978;8.982;2024-03-02T01:45:57;2.29;99.99
71047;SHT31;58703;48.978;8.982;2024-03-02T01:48:25;2.15;99.99
71047;SHT31;58703;48.978;8.982;2024-03-02T01:50:52;2.26;99.99
71047;SHT31;58703;48.978;8.982;2024-03-02T01:53:18;2.32;99.99
71047;SHT31;58703;48.978;8.982;2024-03-02T01:55:45;2.36;99.99
71047;SHT31;58703;48.978;8.982;2024-03-02T01:58:12;2.40;99.99
71047;SHT31;58703;48.978;8.982;2024-03-02T02:00:39;2.36;99.99
71047;SHT31;58703;48.978;8.982;2024-03-02T02:03:06;2.33;99.99
71047;SHT31;58703;48.978;8.982;2024-03-02T02:05:34;2.15;99.99
71047;SHT31;58703;48.978;8.982;2024-03-02T02:08:02;2.18;99.99
71047;SHT31;58703;48.978;8.982;2024-03-02T02:10:28;1.87;99.99
71047;SHT31;58703;48.978;8.982;2024-03-02T02:12:54;1.60;99.99
71047;SHT31;58703;48.978;8.982;2024-03-02T02:15:30;1.42;99.99
71047;SHT31;58703;48.978;8.982;2024-03-02T02:17:58;1.44;99.99
71047;SHT31;58703;48.978;8.982;2024-03-02T02:20:26;1.63;99.99
71047;SHT31;58703;48.978;8.982;2024-03-02T02:23:00;1.68;99.99
71047;SHT31;58703;48.978;8.982;2024-03-02T02:25:27;1.64;99.99
71047;SHT31;58703;48.978;8.982;2024-03-02T02:27:55;1.65;99.99
71047;SHT31;58703;48.978;8.982;2024-03-02T02:30:31;2.04;99.99
71047;SHT31;58703;48.978;8.982;2024-03-02T02:32:59;2.11;99.99
71047;SHT31;58703;48.978;8.982;2024-03-02T02:35:26;2.05;99.99
71047;SHT31;58703;48.978;8.982;2024-03-02T02:37:54;1.89;99.99
71047;SHT31;58703;48.978;8.982;2024-03-02T02:40:19;1.71;99.99
71047;SHT31;58703;48.978;8.982;2024-03-02T02:42:46;1.44;99.99
71047;SHT31;58703;48.978;8.982;2024-03-02T02:45:14;1.50;99.99
71047;SHT31;58703;48.978;8.982;2024-03-02T02:47:41;1.51;99.99
71047;SHT31;58703;48.978;8.982;2024-03-02T02:50:09;1.53;99.99
71047;SHT31;58703;48.978;8.982;2024-03-02T02:52:38;1.53;99.99
71047;SHT31;58703;48.978;8.982;2024-03-02T02:55:10;1.54;99.99
71047;SHT31;58703;48.978;8.982;2024-03-02T02:57:41;1.48;99.99
71047;SHT31;58703;48.978;8.982;2024-03-02T03:00:17;1.33;99.99
71047;SHT31;58703;48.978;8.982;2024-03-02T03:02:48;1.22;99.99
71047;SHT31;58703;48.978;8.982;2024-03-02T03:05:16;1.37;99.99
71047;SHT31;58703;48.978;8.982;2024-03-02T03:07:43;1.58;99.99
71047;SHT31;58703;48.978;8.982;2024-03-02T03:10:11;1.67;99.99
71047;SHT31;58703;48.978;8.982;2024-03-02T03:12:37;1.58;99.99
71047;SHT31;58703;48.978;8.982;2024-03-02T03:15:06;1.47;99.99
71047;SHT31;58703;48.978;8.982;2024-03-02T03:17:32;1.42;99.99
71047;SHT31;58703;48.978;8.982;2024-03-02T03:20:01;1.47;99.99
71047;SHT31;58703;48.978;8.982;2024-03-02T03:22:28;1.71;99.99
71047;SHT31;58703;48.978;8.982;2024-03-02T03:24:55;1.77;99.99
71047;SHT31;58703;48.978;8.982;2024-03-02T03:27:20;1.73;99.99
71047;SHT31;58703;48.978;8.982;2024-03-02T03:29:47;1.63;99.99
71047;SHT31;58703;48.978;8.982;2024-03-02T03:32:14;1.47;99.99
71047;SHT31;58703;48.978;8.982;2024-03-02T03:34:43;1.36;99.99
71047;SHT31;58703;48.978;8.982;2024-03-02T03:37:08;1.23;99.99
71047;SHT31;58703;48.978;8.982;2024-03-02T03:39:36;1.39;99.99
71047;SHT31;58703;48.978;8.982;2024-03-02T03:42:03;1.39;99.99
71047;SHT31;58703;48.978;8.982;2024-03-02T03:44:29;1.58;99.99
71047;SHT31;58703;48.978;8.982;2024-03-02T03:46:56;1.60;99.99
71047;SHT31;58703;48.978;8.982;2024-03-02T03:49:22;1.51;99.99
71047;SHT31;58703;48.978;8.982;2024-03-02T03:51:49;1.47;99.99
71047;SHT31;58703;48.978;8.982;2024-03-02T03:54:16;1.46;99.99
71047;SHT31;58703;48.978;8.982;2024-03-02T03:56:44;1.53;99.99
71047;SHT31;58703;48.978;8.982;2024-03-02T03:59:10;1.63;99.99
71047;SHT31;58703;48.978;8.982;2024-03-02T04:01:37;1.73;99.99
71047;SHT31;58703;48.978;8.982;2024-03-02T04:04:05;1.63;99.99
71047;SHT31;58703;48.978;8.982;2024-03-02T04:06:31;1.56;99.99
71047;SHT31;58703;48.978;8.982;2024-03-02T04:08:57;1.50;99.99
71047;SHT31;58703;48.978;8.982;2024-03-02T04:11:23;1.48;99.99
71047;SHT31;58703;48.978;8.982;2024-03-02T04:13:50;1.57;99.99
71047;SHT31;58703;48.978;8.982;2024-03-02T04:16:17;1.56;99.99
71047;SHT31;58703;48.978;8.982;2024-03-02T04:18:43;1.54;99.99
71047;SHT31;58703;48.978;8.982;2024-03-02T04:21:08;1.67;99.99
71047;SHT31;58703;48.978;8.982;2024-03-02T04:23:35;1.77;99.99
71047;SHT31;58703;48.978;8.982;2024-03-02T04:26:02;1.79;99.99
71047;SHT31;58703;48.978;8.982;2024-03-02T04:28:30;1.81;99.99
71047;SHT31;58703;48.978;8.982;2024-03-02T04:30:58;1.79;99.99
71047;SHT31;58703;48.978;8.982;2024-03-02T04:33:25;1.67;99.99
71047;SHT31;58703;48.978;8.982;2024-03-02T04:35:52;1.67;99.99
71047;SHT31;58703;48.978;8.982;2024-03-02T04:38:19;1.63;99.99
71047;SHT31;58703;48.978;8.982;2024-03-02T04:40:46;1.65;99.99
71047;SHT31;58703;48.978;8.982;2024-03-02T04:43:13;1.71;99.99
71047;SHT31;58703;48.978;8.982;2024-03-02T04:45:43;1.71;99.99
71047;SHT31;58703;48.978;8.982;2024-03-02T04:48:09;1.68;99.99
71047;SHT31;58703;48.978;8.982;2024-03-02T04:50:35;1.64;99.99
71047;SHT31;58703;48.978;8.982;2024-03-02T04:53:02;1.64;99.99
71047;SHT31;58703;48.978;8.982;2024-03-02T04:55:29;1.65;99.99
71047;SHT31;58703;48.978;8.982;2024-03-02T04:57:55;1.60;99.99
71047;SHT31;58703;48.978;8.982;2024-03-02T05:00:22;1.67;99.99
71047;SHT31;58703;48.978;8.982;2024-03-02T05:02:49;1.73;99.99
71047;SHT31;58703;48.978;8.982;2024-03-02T05:05:22;1.71;99.99
71047;SHT31;58703;48.978;8.982;2024-03-02T05:07:49;1.70;99.99
71047;SHT31;58703;48.978;8.982;2024-03-02T05:10:15;1.70;99.99
71047;SHT31;58703;48.978;8.982;2024-03-02T05:12:43;1.67;99.99
71047;SHT31;58703;48.978;8.982;2024-03-02T05:15:16;1.71;99.99
71047;SHT31;58703;48.978;8.982;2024-03-02T05:17:43;1.77;99.99
71047;SHT31;58703;48.978;8.982;2024-03-02T05:20:11;1.82;99.99
71047;SHT31;58703;48.978;8.982;2024-03-02T05:22:38;1.94;99.99
71047;SHT31;58703;48.978;8.982;2024-03-02T05:25:05;2.07;99.99
71047;SHT31;58703;48.978;8.982;2024-03-02T05:27:36;2.11;99.99
71047;SHT31;58703;48.978;8.982;2024-03-02T05:30:04;2.12;99.99
71047;SHT31;58703;48.978;8.982;2024-03-02T05:32:33;2.26;99.99
71047;SHT31;58703;48.978;8.982;2024-03-02T05:35:00;2.21;99.99
71047;SHT31;58703;48.978;8.982;2024-03-02T05:37:27;2.22;99.99
71047;SHT31;58703;48.978;8.982;2024-03-02T05:39:55;2.22;99.99
71047;SHT31;58703;48.978;8.982;2024-03-02T05:42:22;2.43;99.99
71047;SHT31;58703;48.978;8.982;2024-03-02T05:44:49;2.40;99.99
71047;SHT31;58703;48.978;8.982;2024-03-02T05:47:16;2.28;99.99
71047;SHT31;58703;48.978;8.982;2024-03-02T05:49:43;2.30;99.99
71047;SHT31;58703;48.978;8.982;2024-03-02T05:52:10;2.30;99.99
71047;SHT31;58703;48.978;8.982;2024-03-02T05:54:39;2.38;99.99
71047;SHT31;58703;48.978;8.982;2024-03-02T05:57:06;2.43;99.99
71047;SHT31;58703;48.978;8.982;2024-03-02T06:00:06;2.42;99.99
71047;SHT31;58703;48.978;8.982;2024-03-02T06:02:33;2.53;99.99
71047;SHT31;58703;48.978;8.982;2024-03-02T06:05:03;2.79;99.99
71047;SHT31;58703;48.978;8.982;2024-03-02T06:07:31;2.90;99.99
71047;SHT31;58703;48.978;8.982;2024-03-02T06:09:57;2.97;99.99
71047;SHT31;58703;48.978;8.982;2024-03-02T06:12:24;2.94;99.99
71047;SHT31;58703;48.978;8.982;2024-03-02T06:14:51;3.04;99.99
71047;SHT31;58703;48.978;8.982;2024-03-02T06:17:18;3.12;99.99
71047;SHT31;58703;48.978;8.982;2024-03-02T06:19:45;3.07;99.99
71047;SHT31;58703;48.978;8.982;2024-03-02T06:22:13;3.08;99.99
71047;SHT31;58703;48.978;8.982;2024-03-02T06:24:38;3.07;99.99
71047;SHT31;58703;48.978;8.982;2024-03-02T06:27:05;3.15;99.99
71047;SHT31;58703;48.978;8.982;2024-03-02T06:29:35;3.21;99.99
71047;SHT31;58703;48.978;8.982;2024-03-02T06:32:02;3.18;99.99
71047;SHT31;58703;48.978;8.982;2024-03-02T06:34:28;3.15;99.99
71047;SHT31;58703;48.978;8.982;2024-03-02T06:36:55;3.08;99.99
71047;SHT31;58703;48.978;8.982;2024-03-02T06:39:22;3.00;99.99
71047;SHT31;58703;48.978;8.982;2024-03-02T06:41:49;2.97;99.99
71047;SHT31;58703;48.978;8.982;2024-03-02T06:44:17;2.96;99.99
71047;SHT31;58703;48.978;8.982;2024-03-02T06:46:44;2.97;99.99
71047;SHT31;58703;48.978;8.982;2024-03-02T06:49:11;2.99;99.99
71047;SHT31;58703;48.978;8.982;2024-03-02T06:51:36;2.97;99.99
71047;SHT31;58703;48.978;8.982;2024-03-02T06:54:04;2.97;99.99
71047;SHT31;58703;48.978;8.982;2024-03-02T06:56:32;2.97;99.99
71047;SHT31;58703;48.978;8.982;2024-03-02T06:58:59;3.08;99.99
71047;SHT31;58703;48.978;8.982;2024-03-02T07:01:25;3.15;99.99
71047;SHT31;58703;48.978;8.982;2024-03-02T07:03:51;3.25;99.99
71047;SHT31;58703;48.978;8.982;2024-03-02T07:06:19;3.42;99.99
71047;SHT31;58703;48.978;8.982;2024-03-02T07:08:45;3.46;99.99
71047;SHT31;58703;48.978;8.982;2024-03-02T07:11:12;3.58;99.99
71047;SHT31;58703;48.978;8.982;2024-03-02T07:13:39;3.72;99.99
71047;SHT31;58703;48.978;8.982;2024-03-02T07:16:05;3.76;99.99
71047;SHT31;58703;48.978;8.982;2024-03-02T07:18:51;3.78;99.99
71047;SHT31;58703;48.978;8.982;2024-03-02T07:21:20;3.81;99.99
71047;SHT31;58703;48.978;8.982;2024-03-02T07:23:49;3.82;99.99
71047;SHT31;58703;48.978;8.982;2024-03-02T07:26:19;3.78;99.99
71047;SHT31;58703;48.978;8.982;2024-03-02T07:28:46;3.75;99.99
71047;SHT31;58703;48.978;8.982;2024-03-02T07:31:13;3.79;99.99
71047;SHT31;58703;48.978;8.982;2024-03-02T07:33:39;3.81;99.99
71047;SHT31;58703;48.978;8.982;2024-03-02T07:36:06;3.78;99.99
71047;SHT31;58703;48.978;8.982;2024-03-02T07:38:33;3.78;99.99
71047;SHT31;58703;48.978;8.982;2024-03-02T07:41:02;3.82;99.99
71047;SHT31;58703;48.978;8.982;2024-03-02T07:43:30;3.95;99.99
71047;SHT31;58703;48.978;8.982;2024-03-02T07:45:58;3.99;99.99
71047;SHT31;58703;48.978;8.982;2024-03-02T07:48:25;4.10;99.99
71047;SHT31;58703;48.978;8.982;2024-03-02T07:50:52;4.18;99.99
71047;SHT31;58703;48.978;8.982;2024-03-02T07:53:18;4.29;99.99
71047;SHT31;58703;48.978;8.982;2024-03-02T07:55:44;4.37;99.99
71047;SHT31;58703;48.978;8.982;2024-03-02T07:58:11;4.47;99.99
71047;SHT31;58703;48.978;8.982;2024-03-02T08:00:40;4.58;99.99
71047;SHT31;58703;48.978;8.982;2024-03-02T08:03:08;4.65;99.99
71047;SHT31;58703;48.978;8.982;2024-03-02T08:05:37;4.68;99.99
71047;SHT31;58703;48.978;8.982;2024-03-02T08:08:05;4.75;99.99
71047;SHT31;58703;48.978;8.982;2024-03-02T08:10:32;4.85;99.99
71047;SHT31;58703;48.978;8.982;2024-03-02T08:13:00;4.99;99.99
71047;SHT31;58703;48.978;8.982;2024-03-02T08:15:28;5.09;99.99
71047;SHT31;58703;48.978;8.982;2024-03-02T08:17:54;5.35;99.88
71047;SHT31;58703;48.978;8.982;2024-03-02T08:20:22;5.52;99.83
71047;SHT31;58703;48.978;8.982;2024-03-02T08:22:49;5.71;99.61
71047;SHT31;58703;48.978;8.982;2024-03-02T08:25:15;5.87;98.38
71047;SHT31;58703;48.978;8.982;2024-03-02T08:27:42;6.01;98.18
71047;SHT31;58703;48.978;8.982;2024-03-02T08:30:10;6.34;97.95
71047;SHT31;58703;48.978;8.982;2024-03-02T08:32:37;6.56;97.08
71047;SHT31;58703;48.978;8.982;2024-03-02T08:35:05;6.90;96.54
71047;SHT31;58703;48.978;8.982;2024-03-02T08:37:33;7.24;95.61
71047;SHT31;58703;48.978;8.982;2024-03-02T08:39:59;7.30;94.73
71047;SHT31;58703;48.978;8.982;2024-03-02T08:42:26;7.50;93.61
71047;SHT31;58703;48.978;8.982;2024-03-02T08:44:53;7.67;93.61
71047;SHT31;58703;48.978;8.982;2024-03-02T08:47:20;7.96;91.83
71047;SHT31;58703;48.978;8.982;2024-03-02T08:49:47;8.19;91.78
71047;SHT31;58703;48.978;8.982;2024-03-02T08:52:14;8.17;91.37
71047;SHT31;58703;48.978;8.982;2024-03-02T08:54:39;8.30;91.19
71047;SHT31;58703;48.978;8.982;2024-03-02T08:57:06;8.47;90.91
71047;SHT31;58703;48.978;8.982;2024-03-02T08:59:33;8.77;88.20
71047;SHT31;58703;48.978;8.982;2024-03-02T09:01:59;9.11;88.00
71047;SHT31;58703;48.978;8.982;2024-03-02T09:04:27;9.05;86.99
71047;SHT31;58703;48.978;8.982;2024-03-02T09:06:53;9.29;88.47
71047;SHT31;58703;48.978;8.982;2024-03-02T09:09:19;9.18;87.86
71047;SHT31;58703;48.978;8.982;2024-03-02T09:11:46;9.31;86.74
71047;SHT31;58703;48.978;8.982;2024-03-02T09:14:13;9.73;86.50
71047;SHT31;58703;48.978;8.982;2024-03-02T09:16:41;9.83;85.51
71047;SHT31;58703;48.978;8.982;2024-03-02T09:19:07;10.03;83.59
71047;SHT31;58703;48.978;8.982;2024-03-02T09:21:35;10.45;82.70
71047;SHT31;58703;48.978;8.982;2024-03-02T09:24:02;10.71;83.35
71047;SHT31;58703;48.978;8.982;2024-03-02T09:26:30;11.27;80.70
71047;SHT31;58703;48.978;8.982;2024-03-02T09:28:57;11.08;79.58
71047;SHT31;58703;48.978;8.982;2024-03-02T09:31:24;11.16;79.04
71047;SHT31;58703;48.978;8.982;2024-03-02T09:33:52;11.30;79.09
71047;SHT31;58703;48.978;8.982;2024-03-02T09:36:22;11.18;79.49
71047;SHT31;58703;48.978;8.982;2024-03-02T09:38:48;11.27;80.40
71047;SHT31;58703;48.978;8.982;2024-03-02T09:41:15;11.73;79.14
71047;SHT31;58703;48.978;8.982;2024-03-02T09:43:42;11.91;78.46
71047;SHT31;58703;48.978;8.982;2024-03-02T09:46:12;12.17;76.22
71047;SHT31;58703;48.978;8.982;2024-03-02T09:48:38;11.94;77.02
71047;SHT31;58703;48.978;8.982;2024-03-02T09:51:06;12.28;75.76
71047;SHT31;58703;48.978;8.982;2024-03-02T09:53:34;12.52;74.97
71047;SHT31;58703;48.978;8.982;2024-03-02T09:56:01;12.93;74.50
71047;SHT31;58703;48.978;8.982;2024-03-02T09:58:28;13.14;72.76
71047;SHT31;58703;48.978;8.982;2024-03-02T10:00:56;13.06;72.30
71047;SHT31;58703;48.978;8.982;2024-03-02T10:03:23;13.41;71.06
71047;SHT31;58703;48.978;8.982;2024-03-02T10:05:54;13.70;71.20
71047;SHT31;58703;48.978;8.982;2024-03-02T10:08:21;13.41;71.07
71047;SHT31;58703;48.978;8.982;2024-03-02T10:10:47;13.67;70.88
71047;SHT31;58703;48.978;8.982;2024-03-02T10:13:14;13.54;70.05
71047;SHT31;58703;48.978;8.982;2024-03-02T10:15:41;13.41;69.21
71047;SHT31;58703;48.978;8.982;2024-03-02T10:18:12;13.58;70.00
71047;SHT31;58703;48.978;8.982;2024-03-02T10:20:40;13.44;69.34
71047;SHT31;58703;48.978;8.982;2024-03-02T10:23:16;13.92;68.29
71047;SHT31;58703;48.978;8.982;2024-03-02T10:25:45;14.73;68.63
71047;SHT31;58703;48.978;8.982;2024-03-02T10:28:12;14.15;69.15
71047;SHT31;58703;48.978;8.982;2024-03-02T10:30:39;14.33;68.70
71047;SHT31;58703;48.978;8.982;2024-03-02T10:33:06;14.33;68.64
71047;SHT31;58703;48.978;8.982;2024-03-02T10:35:32;14.26;67.41
71047;SHT31;58703;48.978;8.982;2024-03-02T10:38:04;14.33;67.26
71047;SHT31;58703;48.978;8.982;2024-03-02T10:40:31;14.11;67.89
71047;SHT31;58703;48.978;8.982;2024-03-02T10:43:01;13.77;68.30
71047;SHT31;58703;48.978;8.982;2024-03-02T10:45:30;13.61;68.99
71047;SHT31;58703;48.978;8.982;2024-03-02T10:47:57;13.27;70.65
71047;SHT31;58703;48.978;8.982;2024-03-02T10:50:24;14.26;67.41
71047;SHT31;58703;48.978;8.982;2024-03-02T10:52:52;14.28;66.44
71047;SHT31;58703;48.978;8.982;2024-03-02T10:55:19;14.34;68.00
71047;SHT31;58703;48.978;8.982;2024-03-02T10:57:55;14.72;66.22
71047;SHT31;58703;48.978;8.982;2024-03-02T11:00:25;14.28;66.73
71047;SHT31;58703;48.978;8.982;2024-03-02T11:03:15;14.09;67.54
71047;SHT31;58703;48.978;8.982;2024-03-02T11:05:44;14.46;65.36
71047;SHT31;58703;48.978;8.982;2024-03-02T11:08:18;14.94;64.00
71047;SHT31;58703;48.978;8.982;2024-03-02T11:10:57;15.46;63.31
71047;SHT31;58703;48.978;8.982;2024-03-02T11:13:34;15.35;61.20
71047;SHT31;58703;48.978;8.982;2024-03-02T11:16:06;15.35;63.99
71047;SHT31;58703;48.978;8.982;2024-03-02T11:18:37;15.32;63.87
71047;SHT31;58703;48.978;8.982;2024-03-02T11:21:03;14.47;64.78
71047;SHT31;58703;48.978;8.982;2024-03-02T11:23:33;14.88;65.47
71047;SHT31;58703;48.978;8.982;2024-03-02T11:26:19;15.08;63.48
71047;SHT31;58703;48.978;8.982;2024-03-02T11:28:46;15.51;61.72
71047;SHT31;58703;48.978;8.982;2024-03-02T11:31:13;15.68;61.52
71047;SHT31;58703;48.978;8.982;2024-03-02T11:33:40;16.12;60.75
71047;SHT31;58703;48.978;8.982;2024-03-02T11:36:09;16.13;59.56
71047;SHT31;58703;48.978;8.982;2024-03-02T11:38:36;15.96;62.20
71047;SHT31;58703;48.978;8.982;2024-03-02T11:41:09;16.81;58.28
71047;SHT31;58703;48.978;8.982;2024-03-02T11:43:39;16.48;58.66
71047;SHT31;58703;48.978;8.982;2024-03-02T11:46:05;16.89;58.13
71047;SHT31;58703;48.978;8.982;2024-03-02T11:48:38;16.89;57.60
71047;SHT31;58703;48.978;8.982;2024-03-02T11:51:05;16.14;58.74
71047;SHT31;58703;48.978;8.982;2024-03-02T11:53:33;15.90;58.87
71047;SHT31;58703;48.978;8.982;2024-03-02T11:56:01;16.67;58.16
71047;SHT31;58703;48.978;8.982;2024-03-02T11:58:27;16.68;56.93
71047;SHT31;58703;48.978;8.982;2024-03-02T12:00:55;16.31;58.19
71047;SHT31;58703;48.978;8.982;2024-03-02T12:03:26;16.26;57.60
71047;SHT31;58703;48.978;8.982;2024-03-02T12:05:55;16.57;57.73
71047;SHT31;58703;48.978;8.982;2024-03-02T12:08:22;16.50;56.82
71047;SHT31;58703;48.978;8.982;2024-03-02T12:10:58;16.50;56.48
71047;SHT31;58703;48.978;8.982;2024-03-02T12:13:26;16.57;56.58
71047;SHT31;58703;48.978;8.982;2024-03-02T12:15:54;16.57;57.54
71047;SHT31;58703;48.978;8.982;2024-03-02T12:18:23;16.29;57.95
71047;SHT31;58703;48.978;8.982;2024-03-02T12:20:49;16.78;58.73
71047;SHT31;58703;48.978;8.982;2024-03-02T12:23:20;16.09;59.18
71047;SHT31;58703;48.978;8.982;2024-03-02T12:25:48;16.48;58.44
71047;SHT31;58703;48.978;8.982;2024-03-02T12:28:15;16.78;57.95
71047;SHT31;58703;48.978;8.982;2024-03-02T12:30:44;16.88;57.16
71047;SHT31;58703;48.978;8.982;2024-03-02T12:33:11;16.41;57.53
71047;SHT31;58703;48.978;8.982;2024-03-02T12:35:38;17.50;55.95
71047;SHT31;58703;48.978;8.982;2024-03-02T12:38:06;16.91;55.26
71047;SHT31;58703;48.978;8.982;2024-03-02T12:40:32;16.17;57.81
71047;SHT31;58703;48.978;8.982;2024-03-02T12:42:59;16.40;57.56
71047;SHT31;58703;48.978;8.982;2024-03-02T12:45:26;17.26;55.27
71047;SHT31;58703;48.978;8.982;2024-03-02T12:47:52;17.11;55.36
71047;SHT31;58703;48.978;8.982;2024-03-02T12:50:19;17.73;55.17
71047;SHT31;58703;48.978;8.982;2024-03-02T12:52:55;17.69;54.65
71047;SHT31;58703;48.978;8.982;2024-03-02T12:55:21;17.77;54.57
71047;SHT31;58703;48.978;8.982;2024-03-02T12:57:51;16.78;55.06
71047;SHT31;58703;48.978;8.982;2024-03-02T13:00:19;17.07;55.68
71047;SHT31;58703;48.978;8.982;2024-03-02T13:02:47;17.49;55.14
71047;SHT31;58703;48.978;8.982;2024-03-02T13:05:14;17.43;55.02
71047;SHT31;58703;48.978;8.982;2024-03-02T13:07:41;17.43;53.92
71047;SHT31;58703;48.978;8.982;2024-03-02T13:10:08;17.69;56.05
71047;SHT31;58703;48.978;8.982;2024-03-02T13:12:36;17.72;52.73
71047;SHT31;58703;48.978;8.982;2024-03-02T13:15:04;17.86;52.69
71047;SHT31;58703;48.978;8.982;2024-03-02T13:17:35;17.91;52.51
71047;SHT31;58703;48.978;8.982;2024-03-02T13:20:02;17.96;53.23
71047;SHT31;58703;48.978;8.982;2024-03-02T13:22:30;18.24;53.03
71047;SHT31;58703;48.978;8.982;2024-03-02T13:24:58;18.52;50.91
71047;SHT31;58703;48.978;8.982;2024-03-02T13:27:28;18.14;52.17
71047;SHT31;58703;48.978;8.982;2024-03-02T13:29:55;18.13;53.18
71047;SHT31;58703;48.978;8.982;2024-03-02T13:32:22;18.20;51.29
71047;SHT31;58703;48.978;8.982;2024-03-02T13:34:51;18.10;53.21
71047;SHT31;58703;48.978;8.982;2024-03-02T13:37:29;18.30;51.52
71047;SHT31;58703;48.978;8.982;2024-03-02T13:39:57;18.04;51.87
71047;SHT31;58703;48.978;8.982;2024-03-02T13:42:24;18.51;51.86
71047;SHT31;58703;48.978;8.982;2024-03-02T13:44:52;19.05;51.16
71047;SHT31;58703;48.978;8.982;2024-03-02T13:47:17;20.14;48.75
71047;SHT31;58703;48.978;8.982;2024-03-02T13:49:43;18.35;51.38
71047;SHT31;58703;48.978;8.982;2024-03-02T13:52:12;18.05;50.83
71047;SHT31;58703;48.978;8.982;2024-03-02T13:54:48;18.55;50.92
71047;SHT31;58703;48.978;8.982;2024-03-02T13:57:14;18.49;50.24
71047;SHT31;58703;48.978;8.982;2024-03-02T13:59:42;20.04;49.97
71047;SHT31;58703;48.978;8.982;2024-03-02T14:02:11;20.26;49.98
71047;SHT31;58703;48.978;8.982;2024-03-02T14:04:39;19.64;48.69
71047;SHT31;58703;48.978;8.982;2024-03-02T14:07:07;20.17;48.87
71047;SHT31;58703;48.978;8.982;2024-03-02T14:09:43;19.98;47.59
71047;SHT31;58703;48.978;8.982;2024-03-02T14:12:10;19.27;48.44
71047;SHT31;58703;48.978;8.982;2024-03-02T14:14:37;18.76;49.72
71047;SHT31;58703;48.978;8.982;2024-03-02T14:17:05;18.11;50.53
71047;SHT31;58703;48.978;8.982;2024-03-02T14:19:33;18.07;50.96
71047;SHT31;58703;48.978;8.982;2024-03-02T14:21:59;18.69;49.78
71047;SHT31;58703;48.978;8.982;2024-03-02T14:24:24;18.37;49.79
71047;SHT31;58703;48.978;8.982;2024-03-02T14:26:53;18.96;49.86
71047;SHT31;58703;48.978;8.982;2024-03-02T14:29:19;19.10;48.89
71047;SHT31;58703;48.978;8.982;2024-03-02T14:31:44;19.26;49.22
71047;SHT31;58703;48.978;8.982;2024-03-02T14:34:14;19.88;47.74
71047;SHT31;58703;48.978;8.982;2024-03-02T14:36:44;19.81;46.88
71047;SHT31;58703;48.978;8.982;2024-03-02T14:39:12;20.15;47.15
71047;SHT31;58703;48.978;8.982;2024-03-02T14:41:40;20.43;46.10
71047;SHT31;58703;48.978;8.982;2024-03-02T14:44:08;20.08;46.42
71047;SHT31;58703;48.978;8.982;2024-03-02T14:46:34;20.33;45.99
71047;SHT31;58703;48.978;8.982;2024-03-02T14:49:01;21.07;45.00
71047;SHT31;58703;48.978;8.982;2024-03-02T14:51:29;20.26;45.39
71047;SHT31;58703;48.978;8.982;2024-03-02T14:53:56;20.04;47.17
71047;SHT31;58703;48.978;8.982;2024-03-02T14:56:22;20.05;46.66
71047;SHT31;58703;48.978;8.982;2024-03-02T14:58:48;19.45;47.51
71047;SHT31;58703;48.978;8.982;2024-03-02T15:01:15;20.00;46.35
71047;SHT31;58703;48.978;8.982;2024-03-02T15:03:42;20.22;46.56
71047;SHT31;58703;48.978;8.982;2024-03-02T15:06:09;20.15;45.77
71047;SHT31;58703;48.978;8.982;2024-03-02T15:08:36;19.81;47.07
71047;SHT31;58703;48.978;8.982;2024-03-02T15:11:03;19.37;46.77
71047;SHT31;58703;48.978;8.982;2024-03-02T15:13:29;20.07;46.11
71047;SHT31;58703;48.978;8.982;2024-03-02T15:15:56;19.56;46.92
71047;SHT31;58703;48.978;8.982;2024-03-02T15:18:22;18.55;48.46
71047;SHT31;58703;48.978;8.982;2024-03-02T15:20:51;18.40;48.59
71047;SHT31;58703;48.978;8.982;2024-03-02T15:23:18;18.82;47.97
71047;SHT31;58703;48.978;8.982;2024-03-02T15:25:46;19.20;48.33
71047;SHT31;58703;48.978;8.982;2024-03-02T15:28:14;18.20;50.52
71047;SHT31;58703;48.978;8.982;2024-03-02T15:30:41;17.97;52.22
71047;SHT31;58703;48.978;8.982;2024-03-02T15:33:08;16.75;54.32
71047;SHT31;58703;48.978;8.982;2024-03-02T15:35:34;16.44;55.32
71047;SHT31;58703;48.978;8.982;2024-03-02T15:38:01;15.96;55.96
71047;SHT31;58703;48.978;8.982;2024-03-02T15:40:28;15.61;57.07
71047;SHT31;58703;48.978;8.982;2024-03-02T15:42:54;15.54;57.00
71047;SHT31;58703;48.978;8.982;2024-03-02T15:45:22;15.63;57.40